sensor_id;sensor_type;location;lat;lon;timestamp;P1;durP1;ratioP1;P2;durP2;ratioP2
23543;SDS011;11950;51.230;4.012;2023-04-25T00:00:34;14.27;;;3.13;;
23543;SDS011;11950;51.230;4.012;2023-04-25T00:03:00;13.07;;;2.70;;
23543;SDS011;11950;51.230;4.012;2023-04-25T00:05:26;13.38;;;3.70;;
23543;SDS011;11950;51.230;4.012;2023-04-25T00:07:53;9.35;;;2.90;;
23543;SDS011;11950;51.230;4.012;2023-04-25T00:10:19;9.75;;;2.65;;
23543;SDS011;11950;51.230;4.012;2023-04-25T00:12:46;7.28;;;2.80;;
23543;SDS011;11950;51.230;4.012;2023-04-25T00:15:13;16.77;;;2.83;;
23543;SDS011;11950;51.230;4.012;2023-04-25T00:17:39;12.32;;;3.13;;
23543;SDS011;11950;51.230;4.012;2023-04-25T00:20:06;9.05;;;2.53;;
23543;SDS011;11950;51.230;4.012;2023-04-25T00:22:36;14.27;;;3.00;;
23543;SDS011;11950;51.230;4.012;2023-04-25T00:25:05;10.57;;;2.90;;
23543;SDS011;11950;51.230;4.012;2023-04-25T00:27:32;11.13;;;3.08;;
23543;SDS011;11950;51.230;4.012;2023-04-25T00:29:59;11.43;;;2.33;;
23543;SDS011;11950;51.230;4.012;2023-04-25T00:32:25;10.73;;;2.88;;
23543;SDS011;11950;51.230;4.012;2023-04-25T00:34:52;9.68;;;2.55;;
23543;SDS011;11950;51.230;4.012;2023-04-25T00:37:18;12.48;;;2.63;;
23543;SDS011;11950;51.230;4.012;2023-04-25T00:39:45;14.60;;;2.70;;
23543;SDS011;11950;51.230;4.012;2023-04-25T00:42:11;8.05;;;2.33;;
23543;SDS011;11950;51.230;4.012;2023-04-25T00:44:37;15.02;;;2.40;;
23543;SDS011;11950;51.230;4.012;2023-04-25T00:47:04;16.60;;;2.80;;
23543;SDS011;11950;51.230;4.012;2023-04-25T00:49:31;12.98;;;2.65;;
23543;SDS011;11950;51.230;4.012;2023-04-25T00:51:58;10.80;;;2.60;;
23543;SDS011;11950;51.230;4.012;2023-04-25T00:54:24;10.80;;;2.80;;
23543;SDS011;11950;51.230;4.012;2023-04-25T00:56:51;11.27;;;2.40;;
23543;SDS011;11950;51.230;4.012;2023-04-25T00:59:18;10.32;;;2.92;;
23543;SDS011;11950;51.230;4.012;2023-04-25T01:01:46;12.52;;;2.40;;
23543;SDS011;11950;51.230;4.012;2023-04-25T01:04:12;13.55;;;2.75;;
23543;SDS011;11950;51.230;4.012;2023-04-25T01:06:39;14.43;;;2.78;;
23543;SDS011;11950;51.230;4.012;2023-04-25T01:09:06;13.20;;;2.47;;
23543;SDS011;11950;51.230;4.012;2023-04-25T01:11:33;11.18;;;2.97;;
23543;SDS011;11950;51.230;4.012;2023-04-25T01:14:00;11.88;;;2.40;;
23543;SDS011;11950;51.230;4.012;2023-04-25T01:16:27;10.73;;;2.78;;
23543;SDS011;11950;51.230;4.012;2023-04-25T01:18:54;12.63;;;2.92;;
23543;SDS011;11950;51.230;4.012;2023-04-25T01:21:20;14.05;;;2.72;;
23543;SDS011;11950;51.230;4.012;2023-04-25T01:23:47;11.90;;;2.38;;
23543;SDS011;11950;51.230;4.012;2023-04-25T01:26:14;19.60;;;3.25;;
23543;SDS011;11950;51.230;4.012;2023-04-25T01:28:42;14.07;;;2.85;;
23543;SDS011;11950;51.230;4.012;2023-04-25T01:31:10;10.45;;;2.55;;
23543;SDS011;11950;51.230;4.012;2023-04-25T01:33:38;12.40;;;3.55;;
23543;SDS011;11950;51.230;4.012;2023-04-25T01:36:04;12.98;;;2.67;;
23543;SDS011;11950;51.230;4.012;2023-04-25T01:38:31;14.10;;;3.15;;
23543;SDS011;11950;51.230;4.012;2023-04-25T01:40:57;13.73;;;2.47;;
23543;SDS011;11950;51.230;4.012;2023-04-25T01:43:24;16.52;;;3.28;;
23543;SDS011;11950;51.230;4.012;2023-04-25T01:45:52;16.70;;;2.58;;
23543;SDS011;11950;51.230;4.012;2023-04-25T01:48:18;11.23;;;2.17;;
23543;SDS011;11950;51.230;4.012;2023-04-25T01:50:47;10.98;;;2.50;;
23543;SDS011;11950;51.230;4.012;2023-04-25T01:53:13;13.82;;;2.80;;
23543;SDS011;11950;51.230;4.012;2023-04-25T01:55:42;17.33;;;2.67;;
23543;SDS011;11950;51.230;4.012;2023-04-25T01:58:12;12.40;;;2.72;;
23543;SDS011;11950;51.230;4.012;2023-04-25T02:00:56;12.02;;;2.60;;
23543;SDS011;11950;51.230;4.012;2023-04-25T02:03:25;17.70;;;2.58;;
23543;SDS011;11950;51.230;4.012;2023-04-25T02:05:52;13.55;;;2.33;;
23543;SDS011;11950;51.230;4.012;2023-04-25T02:08:19;9.95;;;2.25;;
23543;SDS011;11950;51.230;4.012;2023-04-25T02:10:46;8.35;;;2.38;;
23543;SDS011;11950;51.230;4.012;2023-04-25T02:13:14;11.23;;;2.50;;
23543;SDS011;11950;51.230;4.012;2023-04-25T02:15:49;13.68;;;3.38;;
23543;SDS011;11950;51.230;4.012;2023-04-25T02:18:17;18.98;;;2.63;;
23543;SDS011;11950;51.230;4.012;2023-04-25T02:20:44;14.80;;;2.60;;
23543;SDS011;11950;51.230;4.012;2023-04-25T02:23:11;12.32;;;2.25;;
23543;SDS011;11950;51.230;4.012;2023-04-25T02:25:37;14.68;;;2.35;;
23543;SDS011;11950;51.230;4.012;2023-04-25T02:28:03;8.60;;;2.30;;
23543;SDS011;11950;51.230;4.012;2023-04-25T02:30:30;8.48;;;2.33;;
23543;SDS011;11950;51.230;4.012;2023-04-25T02:32:56;10.63;;;2.70;;
23543;SDS011;11950;51.230;4.012;2023-04-25T02:35:22;9.75;;;2.33;;
23543;SDS011;11950;51.230;4.012;2023-04-25T02:37:48;12.15;;;2.38;;
23543;SDS011;11950;51.230;4.012;2023-04-25T02:40:15;11.55;;;2.13;;
23543;SDS011;11950;51.230;4.012;2023-04-25T02:42:41;13.07;;;2.45;;
23543;SDS011;11950;51.230;4.012;2023-04-25T02:45:08;13.75;;;2.92;;
23543;SDS011;11950;51.230;4.012;2023-04-25T02:47:34;18.52;;;3.03;;
23543;SDS011;11950;51.230;4.012;2023-04-25T02:50:01;12.55;;;2.20;;
23543;SDS011;11950;51.230;4.012;2023-04-25T02:52:28;14.60;;;2.38;;
23543;SDS011;11950;51.230;4.012;2023-04-25T02:55:02;12.82;;;2.60;;
23543;SDS011;11950;51.230;4.012;2023-04-25T02:57:29;14.20;;;2.65;;
23543;SDS011;11950;51.230;4.012;2023-04-25T02:59:56;10.40;;;2.30;;
23543;SDS011;11950;51.230;4.012;2023-04-25T03:02:22;8.88;;;2.97;;
23543;SDS011;11950;51.230;4.012;2023-04-25T03:04:48;13.40;;;3.20;;
23543;SDS011;11950;51.230;4.012;2023-04-25T03:07:14;9.88;;;2.13;;
23543;SDS011;11950;51.230;4.012;2023-04-25T03:09:41;9.93;;;2.40;;
23543;SDS011;11950;51.230;4.012;2023-04-25T03:12:07;12.70;;;2.40;;
23543;SDS011;11950;51.230;4.012;2023-04-25T03:14:34;10.70;;;2.30;;
23543;SDS011;11950;51.230;4.012;2023-04-25T03:17:01;7.13;;;2.03;;
23543;SDS011;11950;51.230;4.012;2023-04-25T03:19:27;9.60;;;1.92;;
23543;SDS011;11950;51.230;4.012;2023-04-25T03:21:53;9.10;;;1.77;;
23543;SDS011;11950;51.230;4.012;2023-04-25T03:24:20;9.32;;;2.00;;
23543;SDS011;11950;51.230;4.012;2023-04-25T03:26:46;7.72;;;1.80;;
23543;SDS011;11950;51.230;4.012;2023-04-25T03:29:13;10.65;;;1.77;;
23543;SDS011;11950;51.230;4.012;2023-04-25T03:31:41;9.38;;;1.70;;
23543;SDS011;11950;51.230;4.012;2023-04-25T03:34:08;12.23;;;1.95;;
23543;SDS011;11950;51.230;4.012;2023-04-25T03:36:35;10.68;;;2.03;;
23543;SDS011;11950;51.230;4.012;2023-04-25T03:39:01;7.53;;;1.98;;
23543;SDS011;11950;51.230;4.012;2023-04-25T03:41:30;6.13;;;1.85;;
23543;SDS011;11950;51.230;4.012;2023-04-25T03:44:02;9.35;;;1.50;;
23543;SDS011;11950;51.230;4.012;2023-04-25T03:46:28;8.07;;;2.17;;
23543;SDS011;11950;51.230;4.012;2023-04-25T03:48:55;8.18;;;1.65;;
23543;SDS011;11950;51.230;4.012;2023-04-25T03:51:27;9.68;;;2.05;;
23543;SDS011;11950;51.230;4.012;2023-04-25T03:53:53;7.88;;;1.92;;
23543;SDS011;11950;51.230;4.012;2023-04-25T03:56:39;9.63;;;1.83;;
23543;SDS011;11950;51.230;4.012;2023-04-25T03:59:15;10.38;;;1.75;;
23543;SDS011;11950;51.230;4.012;2023-04-25T04:01:41;8.85;;;1.80;;
23543;SDS011;11950;51.230;4.012;2023-04-25T04:04:08;7.78;;;1.80;;
23543;SDS011;11950;51.230;4.012;2023-04-25T04:06:34;7.35;;;1.90;;
23543;SDS011;11950;51.230;4.012;2023-04-25T04:09:09;11.45;;;1.70;;
23543;SDS011;11950;51.230;4.012;2023-04-25T04:11:38;6.65;;;1.30;;
23543;SDS011;11950;51.230;4.012;2023-04-25T04:14:05;7.75;;;1.60;;
23543;SDS011;11950;51.230;4.012;2023-04-25T04:16:33;10.27;;;1.70;;
23543;SDS011;11950;51.230;4.012;2023-04-25T04:18:59;8.82;;;1.52;;
23543;SDS011;11950;51.230;4.012;2023-04-25T04:21:26;6.00;;;1.50;;
23543;SDS011;11950;51.230;4.012;2023-04-25T04:23:54;11.80;;;2.40;;
23543;SDS011;11950;51.230;4.012;2023-04-25T04:26:21;9.80;;;2.25;;
23543;SDS011;11950;51.230;4.012;2023-04-25T04:29:15;9.52;;;1.88;;
23543;SDS011;11950;51.230;4.012;2023-04-25T04:31:57;8.25;;;2.05;;
23543;SDS011;11950;51.230;4.012;2023-04-25T04:34:24;8.90;;;1.95;;
23543;SDS011;11950;51.230;4.012;2023-04-25T04:36:52;9.15;;;1.77;;
23543;SDS011;11950;51.230;4.012;2023-04-25T04:39:19;9.98;;;1.90;;
23543;SDS011;11950;51.230;4.012;2023-04-25T04:42:03;7.20;;;1.70;;
23543;SDS011;11950;51.230;4.012;2023-04-25T04:44:50;7.60;;;2.22;;
23543;SDS011;11950;51.230;4.012;2023-04-25T04:47:47;8.30;;;2.60;;
23543;SDS011;11950;51.230;4.012;2023-04-25T04:50:34;9.35;;;2.13;;
23543;SDS011;11950;51.230;4.012;2023-04-25T04:53:18;8.90;;;3.38;;
23543;SDS011;11950;51.230;4.012;2023-04-25T04:56:02;7.72;;;2.30;;
23543;SDS011;11950;51.230;4.012;2023-04-25T04:58:34;10.15;;;2.53;;
23543;SDS011;11950;51.230;4.012;2023-04-25T05:01:12;7.10;;;2.15;;
23543;SDS011;11950;51.230;4.012;2023-04-25T05:03:55;10.63;;;2.42;;
23543;SDS011;11950;51.230;4.012;2023-04-25T05:06:44;9.27;;;2.22;;
23543;SDS011;11950;51.230;4.012;2023-04-25T05:09:13;8.85;;;1.85;;
23543;SDS011;11950;51.230;4.012;2023-04-25T05:12:06;10.52;;;1.80;;
23543;SDS011;11950;51.230;4.012;2023-04-25T05:14:59;6.47;;;1.38;;
23543;SDS011;11950;51.230;4.012;2023-04-25T05:17:53;8.30;;;2.00;;
23543;SDS011;11950;51.230;4.012;2023-04-25T05:20:23;6.05;;;1.50;;
23543;SDS011;11950;51.230;4.012;2023-04-25T05:22:49;5.93;;;1.50;;
23543;SDS011;11950;51.230;4.012;2023-04-25T05:25:24;7.53;;;1.45;;
23543;SDS011;11950;51.230;4.012;2023-04-25T05:28:06;7.43;;;1.80;;
23543;SDS011;11950;51.230;4.012;2023-04-25T05:31:05;6.60;;;1.35;;
23543;SDS011;11950;51.230;4.012;2023-04-25T05:33:42;5.22;;;1.73;;
23543;SDS011;11950;51.230;4.012;2023-04-25T05:36:09;6.80;;;1.45;;
23543;SDS011;11950;51.230;4.012;2023-04-25T05:38:35;3.78;;;1.38;;
23543;SDS011;11950;51.230;4.012;2023-04-25T05:41:24;2.90;;;1.30;;
23543;SDS011;11950;51.230;4.012;2023-04-25T05:43:58;4.10;;;1.85;;
23543;SDS011;11950;51.230;4.012;2023-04-25T05:46:39;9.88;;;2.00;;
23543;SDS011;11950;51.230;4.012;2023-04-25T05:49:35;6.07;;;1.63;;
23543;SDS011;11950;51.230;4.012;2023-04-25T05:52:31;4.22;;;1.40;;
23543;SDS011;11950;51.230;4.012;2023-04-25T05:55:03;6.18;;;1.50;;
23543;SDS011;11950;51.230;4.012;2023-04-25T05:57:31;4.60;;;1.40;;
23543;SDS011;11950;51.230;4.012;2023-04-25T05:59:58;6.13;;;1.35;;
23543;SDS011;11950;51.230;4.012;2023-04-25T06:02:39;7.78;;;1.50;;
23543;SDS011;11950;51.230;4.012;2023-04-25T06:05:05;4.65;;;1.40;;
23543;SDS011;11950;51.230;4.012;2023-04-25T06:07:32;8.13;;;1.67;;
23543;SDS011;11950;51.230;4.012;2023-04-25T06:10:02;4.05;;;1.20;;
23543;SDS011;11950;51.230;4.012;2023-04-25T06:12:32;5.45;;;1.30;;
23543;SDS011;11950;51.230;4.012;2023-04-25T06:14:59;5.78;;;1.23;;
23543;SDS011;11950;51.230;4.012;2023-04-25T06:17:26;7.57;;;1.80;;
23543;SDS011;11950;51.230;4.012;2023-04-25T06:19:53;5.43;;;1.98;;
23543;SDS011;11950;51.230;4.012;2023-04-25T06:22:19;6.68;;;1.85;;
23543;SDS011;11950;51.230;4.012;2023-04-25T06:24:46;8.25;;;1.30;;
23543;SDS011;11950;51.230;4.012;2023-04-25T06:27:12;9.80;;;2.15;;
23543;SDS011;11950;51.230;4.012;2023-04-25T06:29:38;8.68;;;1.30;;
23543;SDS011;11950;51.230;4.012;2023-04-25T06:32:05;7.13;;;1.40;;
23543;SDS011;11950;51.230;4.012;2023-04-25T06:34:31;8.05;;;1.40;;
23543;SDS011;11950;51.230;4.012;2023-04-25T06:36:58;6.63;;;1.63;;
23543;SDS011;11950;51.230;4.012;2023-04-25T06:39:25;6.55;;;1.10;;
23543;SDS011;11950;51.230;4.012;2023-04-25T06:41:51;8.25;;;1.33;;
23543;SDS011;11950;51.230;4.012;2023-04-25T06:44:39;6.45;;;1.13;;
23543;SDS011;11950;51.230;4.012;2023-04-25T06:47:08;7.50;;;1.45;;
23543;SDS011;11950;51.230;4.012;2023-04-25T06:49:34;7.15;;;1.30;;
23543;SDS011;11950;51.230;4.012;2023-04-25T06:52:01;6.78;;;1.40;;
23543;SDS011;11950;51.230;4.012;2023-04-25T06:54:28;5.68;;;1.17;;
23543;SDS011;11950;51.230;4.012;2023-04-25T06:57:02;8.02;;;1.40;;
23543;SDS011;11950;51.230;4.012;2023-04-25T06:59:29;4.38;;;1.00;;
23543;SDS011;11950;51.230;4.012;2023-04-25T07:01:55;7.40;;;1.25;;
23543;SDS011;11950;51.230;4.012;2023-04-25T07:04:25;8.05;;;1.00;;
23543;SDS011;11950;51.230;4.012;2023-04-25T07:06:55;7.25;;;1.10;;
23543;SDS011;11950;51.230;4.012;2023-04-25T07:09:34;8.07;;;1.20;;
23543;SDS011;11950;51.230;4.012;2023-04-25T07:12:01;7.15;;;1.48;;
23543;SDS011;11950;51.230;4.012;2023-04-25T07:14:27;9.15;;;1.30;;
23543;SDS011;11950;51.230;4.012;2023-04-25T07:16:54;6.35;;;1.00;;
23543;SDS011;11950;51.230;4.012;2023-04-25T07:19:23;4.80;;;0.98;;
23543;SDS011;11950;51.230;4.012;2023-04-25T07:21:54;4.20;;;0.85;;
23543;SDS011;11950;51.230;4.012;2023-04-25T07:24:21;4.30;;;0.80;;
23543;SDS011;11950;51.230;4.012;2023-04-25T07:26:50;6.03;;;1.00;;
23543;SDS011;11950;51.230;4.012;2023-04-25T07:29:36;3.05;;;0.90;;
23543;SDS011;11950;51.230;4.012;2023-04-25T07:32:03;3.55;;;0.80;;
23543;SDS011;11950;51.230;4.012;2023-04-25T07:34:30;2.85;;;0.63;;
23543;SDS011;11950;51.230;4.012;2023-04-25T07:36:56;4.13;;;0.80;;
23543;SDS011;11950;51.230;4.012;2023-04-25T07:39:28;4.05;;;0.90;;
23543;SDS011;11950;51.230;4.012;2023-04-25T07:41:55;2.88;;;0.65;;
23543;SDS011;11950;51.230;4.012;2023-04-25T07:44:27;4.22;;;0.90;;
23543;SDS011;11950;51.230;4.012;2023-04-25T07:46:56;7.55;;;1.02;;
23543;SDS011;11950;51.230;4.012;2023-04-25T07:49:23;5.13;;;0.90;;
23543;SDS011;11950;51.230;4.012;2023-04-25T07:51:49;4.18;;;1.20;;
23543;SDS011;11950;51.230;4.012;2023-04-25T07:54:18;3.08;;;0.70;;
23543;SDS011;11950;51.230;4.012;2023-04-25T07:56:49;5.93;;;0.75;;
23543;SDS011;11950;51.230;4.012;2023-04-25T07:59:16;7.70;;;0.80;;
23543;SDS011;11950;51.230;4.012;2023-04-25T08:01:44;4.82;;;0.90;;
23543;SDS011;11950;51.230;4.012;2023-04-25T08:04:10;3.47;;;0.70;;
23543;SDS011;11950;51.230;4.012;2023-04-25T08:06:53;3.92;;;0.77;;
23543;SDS011;11950;51.230;4.012;2023-04-25T08:09:24;3.35;;;0.65;;
23543;SDS011;11950;51.230;4.012;2023-04-25T08:11:52;3.63;;;0.90;;
23543;SDS011;11950;51.230;4.012;2023-04-25T08:14:24;6.38;;;0.90;;
23543;SDS011;11950;51.230;4.012;2023-04-25T08:16:50;5.03;;;0.75;;
23543;SDS011;11950;51.230;4.012;2023-04-25T08:19:18;5.95;;;0.80;;
23543;SDS011;11950;51.230;4.012;2023-04-25T08:21:45;5.50;;;0.82;;
23543;SDS011;11950;51.230;4.012;2023-04-25T08:24:16;5.57;;;0.60;;
23543;SDS011;11950;51.230;4.012;2023-04-25T08:26:43;4.97;;;0.90;;
23543;SDS011;11950;51.230;4.012;2023-04-25T08:29:13;6.40;;;0.82;;
23543;SDS011;11950;51.230;4.012;2023-04-25T08:31:40;4.88;;;0.80;;
23543;SDS011;11950;51.230;4.012;2023-04-25T08:34:08;4.07;;;0.70;;
23543;SDS011;11950;51.230;4.012;2023-04-25T08:36:42;3.95;;;0.70;;
23543;SDS011;11950;51.230;4.012;2023-04-25T08:39:47;5.70;;;1.20;;
23543;SDS011;11950;51.230;4.012;2023-04-25T08:42:33;3.53;;;0.80;;
23543;SDS011;11950;51.230;4.012;2023-04-25T08:45:03;6.28;;;0.80;;
23543;SDS011;11950;51.230;4.012;2023-04-25T08:47:34;9.77;;;1.05;;
23543;SDS011;11950;51.230;4.012;2023-04-25T08:50:02;6.03;;;0.70;;
23543;SDS011;11950;51.230;4.012;2023-04-25T08:52:30;3.85;;;0.70;;
23543;SDS011;11950;51.230;4.012;2023-04-25T08:55:01;2.53;;;0.70;;
23543;SDS011;11950;51.230;4.012;2023-04-25T08:57:29;3.65;;;0.70;;
23543;SDS011;11950;51.230;4.012;2023-04-25T08:59:57;7.65;;;0.75;;
23543;SDS011;11950;51.230;4.012;2023-04-25T09:02:24;3.97;;;0.65;;
23543;SDS011;11950;51.230;4.012;2023-04-25T09:04:51;6.88;;;0.95;;
23543;SDS011;11950;51.230;4.012;2023-04-25T09:07:20;4.70;;;0.63;;
23543;SDS011;11950;51.230;4.012;2023-04-25T09:09:47;3.33;;;0.70;;
23543;SDS011;11950;51.230;4.012;2023-04-25T09:12:19;4.78;;;0.90;;
23543;SDS011;11950;51.230;4.012;2023-04-25T09:17:55;5.75;;;0.68;;
23543;SDS011;11950;51.230;4.012;2023-04-25T09:22:48;3.83;;;0.90;;
23543;SDS011;11950;51.230;4.012;2023-04-25T09:25:14;5.20;;;0.80;;
23543;SDS011;11950;51.230;4.012;2023-04-25T09:28:03;3.25;;;0.60;;
23543;SDS011;11950;51.230;4.012;2023-04-25T09:30:31;5.63;;;0.70;;
23543;SDS011;11950;51.230;4.012;2023-04-25T09:33:31;3.10;;;0.60;;
23543;SDS011;11950;51.230;4.012;2023-04-25T09:38:55;1.85;;;0.70;;
23543;SDS011;11950;51.230;4.012;2023-04-25T09:41:26;4.47;;;0.82;;
23543;SDS011;11950;51.230;4.012;2023-04-25T09:43:58;2.17;;;0.75;;
23543;SDS011;11950;51.230;4.012;2023-04-25T09:46:33;5.80;;;0.88;;
23543;SDS011;11950;51.230;4.012;2023-04-25T09:49:06;1.60;;;0.80;;
23543;SDS011;11950;51.230;4.012;2023-04-25T09:51:40;3.00;;;0.77;;
23543;SDS011;11950;51.230;4.012;2023-04-25T09:54:07;3.78;;;0.80;;
23543;SDS011;11950;51.230;4.012;2023-04-25T09:56:40;2.63;;;0.80;;
23543;SDS011;11950;51.230;4.012;2023-04-25T09:59:07;2.42;;;1.35;;
23543;SDS011;11950;51.230;4.012;2023-04-25T10:01:36;4.35;;;0.70;;
23543;SDS011;11950;51.230;4.012;2023-04-25T10:04:12;4.53;;;0.88;;
23543;SDS011;11950;51.230;4.012;2023-04-25T10:06:52;3.45;;;0.80;;
23543;SDS011;11950;51.230;4.012;2023-04-25T10:09:21;2.50;;;0.70;;
23543;SDS011;11950;51.230;4.012;2023-04-25T10:11:49;3.45;;;0.75;;
23543;SDS011;11950;51.230;4.012;2023-04-25T10:14:16;1.92;;;0.60;;
23543;SDS011;11950;51.230;4.012;2023-04-25T10:16:43;4.03;;;1.00;;
23543;SDS011;11950;51.230;4.012;2023-04-25T10:19:11;5.20;;;0.85;;
23543;SDS011;11950;51.230;4.012;2023-04-25T10:21:48;2.00;;;0.57;;
23543;SDS011;11950;51.230;4.012;2023-04-25T10:24:17;2.95;;;0.43;;
23543;SDS011;11950;51.230;4.012;2023-04-25T10:26:45;5.57;;;0.85;;
23543;SDS011;11950;51.230;4.012;2023-04-25T10:29:15;3.90;;;0.40;;
23543;SDS011;11950;51.230;4.012;2023-04-25T10:31:51;1.45;;;0.45;;
23543;SDS011;11950;51.230;4.012;2023-04-25T10:34:18;2.25;;;0.30;;
23543;SDS011;11950;51.230;4.012;2023-04-25T10:36:51;1.20;;;0.40;;
23543;SDS011;11950;51.230;4.012;2023-04-25T10:39:22;2.08;;;0.30;;
23543;SDS011;11950;51.230;4.012;2023-04-25T10:44:21;1.90;;;0.45;;
23543;SDS011;11950;51.230;4.012;2023-04-25T10:46:47;4.55;;;1.05;;
23543;SDS011;11950;51.230;4.012;2023-04-25T10:49:30;1.23;;;0.40;;
23543;SDS011;11950;51.230;4.012;2023-04-25T10:52:10;3.38;;;0.55;;
23543;SDS011;11950;51.230;4.012;2023-04-25T10:54:49;1.70;;;0.38;;
23543;SDS011;11950;51.230;4.012;2023-04-25T11:00:01;2.78;;;0.50;;
23543;SDS011;11950;51.230;4.012;2023-04-25T11:02:31;4.38;;;0.50;;
23543;SDS011;11950;51.230;4.012;2023-04-25T11:04:57;3.10;;;0.40;;
23543;SDS011;11950;51.230;4.012;2023-04-25T11:07:34;3.08;;;0.60;;
23543;SDS011;11950;51.230;4.012;2023-04-25T11:10:30;2.97;;;0.50;;
23543;SDS011;11950;51.230;4.012;2023-04-25T11:12:57;1.55;;;0.50;;
23543;SDS011;11950;51.230;4.012;2023-04-25T11:15:24;3.38;;;0.77;;
23543;SDS011;11950;51.230;4.012;2023-04-25T11:17:52;3.72;;;0.60;;
23543;SDS011;11950;51.230;4.012;2023-04-25T11:20:19;3.03;;;0.40;;
23543;SDS011;11950;51.230;4.012;2023-04-25T11:22:46;2.67;;;0.50;;
23543;SDS011;11950;51.230;4.012;2023-04-25T11:25:14;2.35;;;0.52;;
23543;SDS011;11950;51.230;4.012;2023-04-25T11:27:55;3.15;;;0.60;;
23543;SDS011;11950;51.230;4.012;2023-04-25T11:30:25;3.28;;;0.60;;
23543;SDS011;11950;51.230;4.012;2023-04-25T11:32:52;2.75;;;0.50;;
23543;SDS011;11950;51.230;4.012;2023-04-25T11:35:19;1.00;;;0.60;;
23543;SDS011;11950;51.230;4.012;2023-04-25T11:37:48;3.83;;;0.50;;
23543;SDS011;11950;51.230;4.012;2023-04-25T11:40:15;3.58;;;0.50;;
23543;SDS011;11950;51.230;4.012;2023-04-25T11:42:45;4.53;;;0.52;;
23543;SDS011;11950;51.230;4.012;2023-04-25T11:45:13;1.42;;;0.50;;
23543;SDS011;11950;51.230;4.012;2023-04-25T11:47:39;0.82;;;0.60;;
23543;SDS011;11950;51.230;4.012;2023-04-25T11:50:07;6.18;;;0.60;;
23543;SDS011;11950;51.230;4.012;2023-04-25T11:52:37;3.50;;;0.60;;
23543;SDS011;11950;51.230;4.012;2023-04-25T11:55:18;2.97;;;0.50;;
23543;SDS011;11950;51.230;4.012;2023-04-25T11:57:46;1.70;;;0.50;;
23543;SDS011;11950;51.230;4.012;2023-04-25T12:00:20;2.28;;;0.45;;
23543;SDS011;11950;51.230;4.012;2023-04-25T12:02:47;3.35;;;0.40;;
23543;SDS011;11950;51.230;4.012;2023-04-25T12:05:17;6.17;;;0.60;;
23543;SDS011;11950;51.230;4.012;2023-04-25T12:07:45;3.33;;;0.70;;
23543;SDS011;11950;51.230;4.012;2023-04-25T12:10:13;5.80;;;0.93;;
23543;SDS011;11950;51.230;4.012;2023-04-25T12:12:43;3.85;;;0.60;;
23543;SDS011;11950;51.230;4.012;2023-04-25T12:15:12;2.88;;;0.50;;
23543;SDS011;11950;51.230;4.012;2023-04-25T12:17:45;4.88;;;0.80;;
23543;SDS011;11950;51.230;4.012;2023-04-25T12:20:14;3.25;;;0.60;;
23543;SDS011;11950;51.230;4.012;2023-04-25T12:22:46;1.35;;;0.55;;
23543;SDS011;11950;51.230;4.012;2023-04-25T12:28:10;2.58;;;0.60;;
23543;SDS011;11950;51.230;4.012;2023-04-25T12:33:27;4.43;;;0.40;;
23543;SDS011;11950;51.230;4.012;2023-04-25T12:35:54;3.55;;;0.63;;
23543;SDS011;11950;51.230;4.012;2023-04-25T12:38:22;3.28;;;0.55;;
23543;SDS011;11950;51.230;4.012;2023-04-25T12:40:49;3.85;;;0.40;;
23543;SDS011;11950;51.230;4.012;2023-04-25T12:43:15;3.03;;;0.60;;
23543;SDS011;11950;51.230;4.012;2023-04-25T12:45:42;1.75;;;0.40;;
23543;SDS011;11950;51.230;4.012;2023-04-25T12:48:08;2.78;;;0.50;;
23543;SDS011;11950;51.230;4.012;2023-04-25T12:50:34;3.63;;;0.50;;
23543;SDS011;11950;51.230;4.012;2023-04-25T12:53:01;1.08;;;0.40;;
23543;SDS011;11950;51.230;4.012;2023-04-25T12:55:27;3.83;;;0.50;;
23543;SDS011;11950;51.230;4.012;2023-04-25T12:57:53;3.83;;;0.50;;
23543;SDS011;11950;51.230;4.012;2023-04-25T13:00:20;2.30;;;0.50;;
23543;SDS011;11950;51.230;4.012;2023-04-25T13:02:46;6.65;;;0.55;;
23543;SDS011;11950;51.230;4.012;2023-04-25T13:05:12;4.45;;;0.70;;
23543;SDS011;11950;51.230;4.012;2023-04-25T13:07:39;1.20;;;0.40;;
23543;SDS011;11950;51.230;4.012;2023-04-25T13:10:05;1.88;;;0.50;;
23543;SDS011;11950;51.230;4.012;2023-04-25T13:12:32;2.28;;;0.50;;
23543;SDS011;11950;51.230;4.012;2023-04-25T13:14:58;3.33;;;0.55;;
23543;SDS011;11950;51.230;4.012;2023-04-25T13:17:25;1.83;;;0.50;;
23543;SDS011;11950;51.230;4.012;2023-04-25T13:19:51;2.30;;;0.60;;
23543;SDS011;11950;51.230;4.012;2023-04-25T13:22:17;2.53;;;0.85;;
23543;SDS011;11950;51.230;4.012;2023-04-25T13:24:45;2.25;;;0.40;;
23543;SDS011;11950;51.230;4.012;2023-04-25T13:27:12;4.93;;;0.80;;
23543;SDS011;11950;51.230;4.012;2023-04-25T13:29:38;3.35;;;0.50;;
23543;SDS011;11950;51.230;4.012;2023-04-25T13:32:06;1.70;;;0.77;;
23543;SDS011;11950;51.230;4.012;2023-04-25T13:34:34;2.45;;;0.60;;
23543;SDS011;11950;51.230;4.012;2023-04-25T13:37:00;4.38;;;0.57;;
23543;SDS011;11950;51.230;4.012;2023-04-25T13:39:26;5.30;;;0.60;;
23543;SDS011;11950;51.230;4.012;2023-04-25T13:41:53;4.35;;;0.70;;
23543;SDS011;11950;51.230;4.012;2023-04-25T13:44:19;2.90;;;0.52;;
23543;SDS011;11950;51.230;4.012;2023-04-25T13:46:45;3.63;;;0.50;;
23543;SDS011;11950;51.230;4.012;2023-04-25T13:49:12;2.50;;;0.40;;
23543;SDS011;11950;51.230;4.012;2023-04-25T13:51:38;6.03;;;0.40;;
23543;SDS011;11950;51.230;4.012;2023-04-25T13:54:05;2.55;;;0.43;;
23543;SDS011;11950;51.230;4.012;2023-04-25T13:56:31;5.28;;;0.77;;
23543;SDS011;11950;51.230;4.012;2023-04-25T13:58:57;2.38;;;0.40;;
23543;SDS011;11950;51.230;4.012;2023-04-25T14:01:24;2.00;;;0.50;;
23543;SDS011;11950;51.230;4.012;2023-04-25T14:03:50;4.78;;;0.60;;
23543;SDS011;11950;51.230;4.012;2023-04-25T14:06:16;3.42;;;0.60;;
23543;SDS011;11950;51.230;4.012;2023-04-25T14:08:49;1.52;;;0.60;;
23543;SDS011;11950;51.230;4.012;2023-04-25T14:11:15;4.45;;;0.47;;
23543;SDS011;11950;51.230;4.012;2023-04-25T14:13:44;1.52;;;0.40;;
23543;SDS011;11950;51.230;4.012;2023-04-25T14:16:10;1.30;;;0.50;;
23543;SDS011;11950;51.230;4.012;2023-04-25T14:18:37;3.20;;;0.40;;
23543;SDS011;11950;51.230;4.012;2023-04-25T14:21:03;3.33;;;0.60;;
23543;SDS011;11950;51.230;4.012;2023-04-25T14:23:30;5.50;;;0.52;;
23543;SDS011;11950;51.230;4.012;2023-04-25T14:25:56;3.08;;;0.57;;
23543;SDS011;11950;51.230;4.012;2023-04-25T14:28:22;4.40;;;0.50;;
23543;SDS011;11950;51.230;4.012;2023-04-25T14:30:49;4.78;;;0.50;;
23543;SDS011;11950;51.230;4.012;2023-04-25T14:33:15;2.00;;;0.50;;
23543;SDS011;11950;51.230;4.012;2023-04-25T14:35:41;2.97;;;0.50;;
23543;SDS011;11950;51.230;4.012;2023-04-25T14:38:07;3.30;;;0.65;;
23543;SDS011;11950;51.230;4.012;2023-04-25T14:40:34;5.28;;;0.65;;
23543;SDS011;11950;51.230;4.012;2023-04-25T14:43:00;2.75;;;0.80;;
23543;SDS011;11950;51.230;4.012;2023-04-25T14:45:26;1.67;;;0.60;;
23543;SDS011;11950;51.230;4.012;2023-04-25T14:47:53;2.58;;;0.70;;
23543;SDS011;11950;51.230;4.012;2023-04-25T14:50:19;4.82;;;0.63;;
23543;SDS011;11950;51.230;4.012;2023-04-25T14:52:46;4.97;;;0.70;;
23543;SDS011;11950;51.230;4.012;2023-04-25T14:55:12;4.82;;;0.80;;
23543;SDS011;11950;51.230;4.012;2023-04-25T14:57:39;3.25;;;0.60;;
23543;SDS011;11950;51.230;4.012;2023-04-25T15:00:06;2.78;;;0.80;;
23543;SDS011;11950;51.230;4.012;2023-04-25T15:02:35;2.72;;;0.70;;
23543;SDS011;11950;51.230;4.012;2023-04-25T15:05:02;6.72;;;0.88;;
23543;SDS011;11950;51.230;4.012;2023-04-25T15:07:28;2.50;;;0.60;;
23543;SDS011;11950;51.230;4.012;2023-04-25T15:09:55;6.53;;;0.80;;
23543;SDS011;11950;51.230;4.012;2023-04-25T15:12:22;5.90;;;0.73;;
23543;SDS011;11950;51.230;4.012;2023-04-25T15:14:48;1.95;;;0.60;;
23543;SDS011;11950;51.230;4.012;2023-04-25T15:17:15;4.93;;;0.70;;
23543;SDS011;11950;51.230;4.012;2023-04-25T15:19:41;5.13;;;0.90;;